sensor_id;sensor_type;location;lat;lon;timestamp;pressure;altitude;pressure_sealevel;temperature;humidity
10127;BME280;13080;42.608;23.362;2023-08-31T00:00:34;155492.00;;;17.32;69.91
10127;BME280;13080;42.608;23.362;2023-08-31T00:03:03;155506.38;;;17.38;69.83
10127;BME280;13080;42.608;23.362;2023-08-31T00:05:30;155499.81;;;17.35;69.46
10127;BME280;13080;42.608;23.362;2023-08-31T00:07:56;155502.47;;;17.36;70.03
10127;BME280;13080;42.608;23.362;2023-08-31T00:10:23;155495.94;;;17.34;70.00
10127;BME280;13080;42.608;23.362;2023-08-31T00:12:51;155484.19;;;17.29;70.05
10127;BME280;13080;42.608;23.362;2023-08-31T00:15:19;155473.75;;;17.25;69.84
10127;BME280;13080;42.608;23.362;2023-08-31T00:17:45;155478.97;;;17.27;70.39
10127;BME280;13080;42.608;23.362;2023-08-31T00:20:13;155467.22;;;17.22;71.78
10127;BME280;13080;42.608;23.362;2023-08-31T00:22:40;155450.28;;;17.16;72.08
10127;BME280;13080;42.608;23.362;2023-08-31T00:25:07;155434.59;;;17.10;72.87
10127;BME280;13080;42.608;23.362;2023-08-31T00:27:34;155447.63;;;17.15;71.55
10127;BME280;13080;42.608;23.362;2023-08-31T00:30:04;155428.06;;;17.07;71.76
10127;BME280;13080;42.608;23.362;2023-08-31T00:32:34;155416.34;;;17.02;71.00
10127;BME280;13080;42.608;23.362;2023-08-31T00:35:00;155416.34;;;17.02;70.74
10127;BME280;13080;42.608;23.362;2023-08-31T00:37:29;155413.69;;;17.01;70.43
10127;BME280;13080;42.608;23.362;2023-08-31T00:39:55;155420.25;;;17.04;70.66
10127;BME280;13080;42.608;23.362;2023-08-31T00:42:22;155420.25;;;17.04;70.51
10127;BME280;13080;42.608;23.362;2023-08-31T00:44:50;155429.38;;;17.08;69.84
10127;BME280;13080;42.608;23.362;2023-08-31T00:47:17;155438.53;;;17.11;70.23
10127;BME280;13080;42.608;23.362;2023-08-31T00:49:45;155451.56;;;17.16;70.56
10127;BME280;13080;42.608;23.362;2023-08-31T00:52:12;155452.84;;;17.17;70.77
10127;BME280;13080;42.608;23.362;2023-08-31T00:54:39;155451.56;;;17.16;71.45
10127;BME280;13080;42.608;23.362;2023-08-31T00:57:07;155455.50;;;17.18;71.38
10127;BME280;13080;42.608;23.362;2023-08-31T00:59:34;155456.78;;;17.18;72.12
10127;BME280;13080;42.608;23.362;2023-08-31T01:02:05;155447.63;;;17.15;71.60
10127;BME280;13080;42.608;23.362;2023-08-31T01:04:40;155447.63;;;17.15;72.55
10127;BME280;13080;42.608;23.362;2023-08-31T01:07:19;155434.59;;;17.10;72.70
10127;BME280;13080;42.608;23.362;2023-08-31T01:09:55;155425.44;;;17.06;72.17
10127;BME280;13080;42.608;23.362;2023-08-31T01:12:30;155426.78;;;17.07;72.00
10127;BME280;13080;42.608;23.362;2023-08-31T01:15:03;155424.16;;;17.06;72.53
10127;BME280;13080;42.608;23.362;2023-08-31T01:17:34;155424.16;;;17.06;73.06
10127;BME280;13080;42.608;23.362;2023-08-31T01:20:04;155424.16;;;17.06;72.35
10127;BME280;13080;42.608;23.362;2023-08-31T01:22:38;155398.06;;;16.95;73.68
10127;BME280;13080;42.608;23.362;2023-08-31T01:25:08;155373.25;;;16.86;73.05
10127;BME280;13080;42.608;23.362;2023-08-31T01:27:35;155383.69;;;16.90;72.81
10127;BME280;13080;42.608;23.362;2023-08-31T01:30:04;155378.47;;;16.88;72.81
10127;BME280;13080;42.608;23.362;2023-08-31T01:32:31;155374.59;;;16.86;72.79
10127;BME280;13080;42.608;23.362;2023-08-31T01:34:58;155365.44;;;16.82;73.68
10127;BME280;13080;42.608;23.362;2023-08-31T01:37:30;155377.19;;;16.87;73.90
10127;BME280;13080;42.608;23.362;2023-08-31T01:40:01;155368.03;;;16.83;73.63
10127;BME280;13080;42.608;23.362;2023-08-31T01:42:32;155357.63;;;16.79;73.42
10127;BME280;13080;42.608;23.362;2023-08-31T01:45:00;155352.38;;;16.77;73.52
10127;BME280;13080;42.608;23.362;2023-08-31T01:47:28;155352.38;;;16.77;73.35
10127;BME280;13080;42.608;23.362;2023-08-31T01:49:55;155351.03;;;16.77;73.56
10127;BME280;13080;42.608;23.362;2023-08-31T01:52:22;155339.28;;;16.72;74.05
10127;BME280;13080;42.608;23.362;2023-08-31T01:54:49;155323.66;;;16.66;74.29
10127;BME280;13080;42.608;23.362;2023-08-31T01:57:16;155310.59;;;16.61;74.15
10127;BME280;13080;42.608;23.362;2023-08-31T01:59:44;155305.38;;;16.59;76.24
10127;BME280;13080;42.608;23.362;2023-08-31T02:02:11;155287.13;;;16.52;76.66
10127;BME280;13080;42.608;23.362;2023-08-31T02:04:38;155279.31;;;16.49;77.19
10127;BME280;13080;42.608;23.362;2023-08-31T02:07:04;155275.38;;;16.47;77.96
10127;BME280;13080;42.608;23.362;2023-08-31T02:09:31;155253.19;;;16.38;78.04
10127;BME280;13080;42.608;23.362;2023-08-31T02:11:58;155234.94;;;16.31;77.76
10127;BME280;13080;42.608;23.362;2023-08-31T02:14:25;155231.03;;;16.30;76.48
10127;BME280;13080;42.608;23.362;2023-08-31T02:16:53;155227.13;;;16.28;76.16
10127;BME280;13080;42.608;23.362;2023-08-31T02:19:19;155212.78;;;16.23;76.39
10127;BME280;13080;42.608;23.362;2023-08-31T02:21:46;155206.25;;;16.20;76.37
10127;BME280;13080;42.608;23.362;2023-08-31T02:24:13;155210.19;;;16.21;76.84
10127;BME280;13080;42.608;23.362;2023-08-31T02:26:40;155198.44;;;16.17;77.03
10127;BME280;13080;42.608;23.362;2023-08-31T02:29:07;155194.53;;;16.15;77.60
10127;BME280;13080;42.608;23.362;2023-08-31T02:31:33;155178.88;;;16.09;77.58
10127;BME280;13080;42.608;23.362;2023-08-31T02:34:02;155176.28;;;16.08;77.54
10127;BME280;13080;42.608;23.362;2023-08-31T02:36:29;155161.91;;;16.03;77.58
10127;BME280;13080;42.608;23.362;2023-08-31T02:38:56;155159.31;;;16.02;77.46
10127;BME280;13080;42.608;23.362;2023-08-31T02:41:23;155152.81;;;15.99;78.58
10127;BME280;13080;42.608;23.362;2023-08-31T02:43:50;155150.19;;;15.98;78.01
10127;BME280;13080;42.608;23.362;2023-08-31T02:46:17;155146.31;;;15.96;77.36
10127;BME280;13080;42.608;23.362;2023-08-31T02:48:44;155135.88;;;15.92;77.33
10127;BME280;13080;42.608;23.362;2023-08-31T02:51:12;155124.13;;;15.88;77.58
10127;BME280;13080;42.608;23.362;2023-08-31T02:53:39;155121.50;;;15.87;78.44
10127;BME280;13080;42.608;23.362;2023-08-31T02:56:05;155109.75;;;15.82;79.04
10127;BME280;13080;42.608;23.362;2023-08-31T02:58:32;155091.53;;;15.75;80.43
10127;BME280;13080;42.608;23.362;2023-08-31T03:01:07;155070.59;;;15.67;80.58
10127;BME280;13080;42.608;23.362;2023-08-31T03:03:34;155041.91;;;15.55;80.86
10127;BME280;13080;42.608;23.362;2023-08-31T03:06:02;155021.09;;;15.47;81.00
10127;BME280;13080;42.608;23.362;2023-08-31T03:08:31;155001.53;;;15.39;81.32
10127;BME280;13080;42.608;23.362;2023-08-31T03:10:58;154983.28;;;15.32;81.60
10127;BME280;13080;42.608;23.362;2023-08-31T03:13:25;154968.91;;;15.27;81.89
10127;BME280;13080;42.608;23.362;2023-08-31T03:15:52;154954.63;;;15.21;81.96
10127;BME280;13080;42.608;23.362;2023-08-31T03:18:18;154953.31;;;15.21;81.65
10127;BME280;13080;42.608;23.362;2023-08-31T03:20:45;154938.97;;;15.15;82.07
10127;BME280;13080;42.608;23.362;2023-08-31T03:23:12;154946.81;;;15.18;82.17
10127;BME280;13080;42.608;23.362;2023-08-31T03:25:40;154941.59;;;15.16;81.93
10127;BME280;13080;42.608;23.362;2023-08-31T03:28:07;154932.47;;;15.12;81.99
10127;BME280;13080;42.608;23.362;2023-08-31T03:30:35;154953.31;;;15.21;82.00
10127;BME280;13080;42.608;23.362;2023-08-31T03:33:02;154938.97;;;15.15;82.04
10127;BME280;13080;42.608;23.362;2023-08-31T03:35:29;154929.88;;;15.11;82.01
10127;BME280;13080;42.608;23.362;2023-08-31T03:37:56;154927.25;;;15.10;82.40
10127;BME280;13080;42.608;23.362;2023-08-31T03:40:22;154924.66;;;15.09;82.10
10127;BME280;13080;42.608;23.362;2023-08-31T03:42:51;154920.72;;;15.08;82.16
10127;BME280;13080;42.608;23.362;2023-08-31T03:45:19;154914.22;;;15.05;82.83
10127;BME280;13080;42.608;23.362;2023-08-31T03:47:46;154909.00;;;15.03;83.41
10127;BME280;13080;42.608;23.362;2023-08-31T03:50:13;154906.41;;;15.02;83.42
10127;BME280;13080;42.608;23.362;2023-08-31T03:52:40;154905.09;;;15.02;83.09
10127;BME280;13080;42.608;23.362;2023-08-31T03:55:07;154896.00;;;14.98;83.36
10127;BME280;13080;42.608;23.362;2023-08-31T03:57:34;154886.84;;;14.94;83.07
10127;BME280;13080;42.608;23.362;2023-08-31T04:00:02;154888.13;;;14.95;82.85
10127;BME280;13080;42.608;23.362;2023-08-31T04:02:34;154888.13;;;14.95;82.46
10127;BME280;13080;42.608;23.362;2023-08-31T04:05:01;154893.34;;;14.97;82.63
10127;BME280;13080;42.608;23.362;2023-08-31T04:07:30;154910.28;;;15.04;83.28
10127;BME280;13080;42.608;23.362;2023-08-31T04:09:57;154932.47;;;15.12;83.88
10127;BME280;13080;42.608;23.362;2023-08-31T04:12:24;154959.84;;;15.23;83.00
10127;BME280;13080;42.608;23.362;2023-08-31T04:14:50;154971.56;;;15.28;81.70
10127;BME280;13080;42.608;23.362;2023-08-31T04:17:19;154998.94;;;15.38;80.39
10127;BME280;13080;42.608;23.362;2023-08-31T04:19:46;155030.19;;;15.51;79.77
10127;BME280;13080;42.608;23.362;2023-08-31T04:22:12;155056.28;;;15.61;79.36
10127;BME280;13080;42.608;23.362;2023-08-31T04:24:39;155087.59;;;15.73;78.63
10127;BME280;13080;42.608;23.362;2023-08-31T04:27:06;155113.69;;;15.84;79.72
10127;BME280;13080;42.608;23.362;2023-08-31T04:29:33;155146.31;;;15.96;78.11
10127;BME280;13080;42.608;23.362;2023-08-31T04:32:01;155171.06;;;16.06;77.49
10127;BME280;13080;42.608;23.362;2023-08-31T04:34:29;155203.69;;;16.19;76.90
10127;BME280;13080;42.608;23.362;2023-08-31T04:36:56;155219.28;;;16.25;77.08
10127;BME280;13080;42.608;23.362;2023-08-31T04:39:23;155233.66;;;16.31;76.40
10127;BME280;13080;42.608;23.362;2023-08-31T04:41:51;155237.59;;;16.32;76.80
10127;BME280;13080;42.608;23.362;2023-08-31T04:44:18;155247.97;;;16.36;77.12
10127;BME280;13080;42.608;23.362;2023-08-31T04:46:44;155250.59;;;16.37;77.91
10127;BME280;13080;42.608;23.362;2023-08-31T04:49:11;155246.69;;;16.36;78.23
10127;BME280;13080;42.608;23.362;2023-08-31T04:51:39;155244.09;;;16.35;77.74
10127;BME280;13080;42.608;23.362;2023-08-31T04:54:07;155241.47;;;16.34;77.98
10127;BME280;13080;42.608;23.362;2023-08-31T04:56:34;155231.03;;;16.30;78.65
10127;BME280;13080;42.608;23.362;2023-08-31T04:59:01;155227.13;;;16.28;80.53
10127;BME280;13080;42.608;23.362;2023-08-31T05:01:28;155224.50;;;16.27;80.25
10127;BME280;13080;42.608;23.362;2023-08-31T05:03:55;155225.81;;;16.28;80.61
10127;BME280;13080;42.608;23.362;2023-08-31T05:06:23;155229.72;;;16.29;81.05
10127;BME280;13080;42.608;23.362;2023-08-31T05:08:51;155253.19;;;16.38;79.15
10127;BME280;13080;42.608;23.362;2023-08-31T05:11:18;155268.88;;;16.45;79.66
10127;BME280;13080;42.608;23.362;2023-08-31T05:13:44;155287.13;;;16.52;78.36
10127;BME280;13080;42.608;23.362;2023-08-31T05:16:11;155315.81;;;16.63;77.86
10127;BME280;13080;42.608;23.362;2023-08-31T05:18:38;155348.44;;;16.76;76.93
10127;BME280;13080;42.608;23.362;2023-08-31T05:21:06;155371.97;;;16.85;76.54
10127;BME280;13080;42.608;23.362;2023-08-31T05:23:32;155415.03;;;17.02;75.11
10127;BME280;13080;42.608;23.362;2023-08-31T05:26:00;155432.00;;;17.09;74.64
10127;BME280;13080;42.608;23.362;2023-08-31T05:28:27;155463.31;;;17.21;75.04
10127;BME280;13080;42.608;23.362;2023-08-31T05:30:56;155485.50;;;17.30;74.74
10127;BME280;13080;42.608;23.362;2023-08-31T05:33:24;155516.78;;;17.42;74.38
10127;BME280;13080;42.608;23.362;2023-08-31T05:35:54;155546.84;;;17.54;72.81
10127;BME280;13080;42.608;23.362;2023-08-31T05:38:20;155580.78;;;17.67;71.04
10127;BME280;13080;42.608;23.362;2023-08-31T05:40:47;155604.28;;;17.76;71.19
10127;BME280;13080;42.608;23.362;2023-08-31T05:43:16;155617.38;;;17.81;68.63
10127;BME280;13080;42.608;23.362;2023-08-31T05:45:43;155650.03;;;17.94;68.42
10127;BME280;13080;42.608;23.362;2023-08-31T05:48:09;155711.41;;;18.18;67.99
10127;BME280;13080;42.608;23.362;2023-08-31T05:50:36;155704.84;;;18.16;66.24
10127;BME280;13080;42.608;23.362;2023-08-31T05:53:03;155730.97;;;18.26;66.34
10127;BME280;13080;42.608;23.362;2023-08-31T05:55:30;155738.81;;;18.29;67.17
10127;BME280;13080;42.608;23.362;2023-08-31T05:57:58;155757.13;;;18.36;68.22
10127;BME280;13080;42.608;23.362;2023-08-31T06:00:27;155776.69;;;18.44;65.94
10127;BME280;13080;42.608;23.362;2023-08-31T06:02:54;155772.75;;;18.42;66.15
10127;BME280;13080;42.608;23.362;2023-08-31T06:05:21;155759.72;;;18.37;65.70
10127;BME280;13080;42.608;23.362;2023-08-31T06:07:47;155768.88;;;18.41;65.96
10127;BME280;13080;42.608;23.362;2023-08-31T06:10:14;155767.53;;;18.40;67.43
10127;BME280;13080;42.608;23.362;2023-08-31T06:12:41;155800.19;;;18.53;67.61
10127;BME280;13080;42.608;23.362;2023-08-31T06:15:08;155835.44;;;18.67;66.12
10127;BME280;13080;42.608;23.362;2023-08-31T06:17:36;155849.84;;;18.73;65.84
10127;BME280;13080;42.608;23.362;2023-08-31T06:20:04;155848.50;;;18.72;65.84
10127;BME280;13080;42.608;23.362;2023-08-31T06:22:31;155847.22;;;18.72;66.60
10127;BME280;13080;42.608;23.362;2023-08-31T06:24:58;155868.19;;;18.80;66.64
10127;BME280;13080;42.608;23.362;2023-08-31T06:27:25;155892.97;;;18.89;66.25
10127;BME280;13080;42.608;23.362;2023-08-31T06:29:52;155906.09;;;18.95;66.44
10127;BME280;13080;42.608;23.362;2023-08-31T06:32:19;155911.25;;;18.97;66.59
10127;BME280;13080;42.608;23.362;2023-08-31T06:34:47;155920.44;;;19.00;65.32
10127;BME280;13080;42.608;23.362;2023-08-31T06:37:13;155934.81;;;19.06;66.22
10127;BME280;13080;42.608;23.362;2023-08-31T06:39:40;155929.59;;;19.04;65.30
10127;BME280;13080;42.608;23.362;2023-08-31T06:42:07;155957.00;;;19.15;64.75
10127;BME280;13080;42.608;23.362;2023-08-31T06:44:34;155955.69;;;19.14;65.35
10127;BME280;13080;42.608;23.362;2023-08-31T06:47:04;155981.84;;;19.24;63.89
10127;BME280;13080;42.608;23.362;2023-08-31T06:49:30;155990.97;;;19.28;63.79
10127;BME280;13080;42.608;23.362;2023-08-31T06:52:00;156017.13;;;19.38;64.10
10127;BME280;13080;42.608;23.362;2023-08-31T06:54:28;156065.47;;;19.57;64.32
10127;BME280;13080;42.608;23.362;2023-08-31T06:56:56;156068.09;;;19.58;63.71
10127;BME280;13080;42.608;23.362;2023-08-31T06:59:23;156062.88;;;19.56;65.01
10127;BME280;13080;42.608;23.362;2023-08-31T07:01:50;156028.91;;;19.43;63.75
10127;BME280;13080;42.608;23.362;2023-08-31T07:04:17;156066.81;;;19.58;63.10
10127;BME280;13080;42.608;23.362;2023-08-31T07:06:43;156079.88;;;19.63;64.08
10127;BME280;13080;42.608;23.362;2023-08-31T07:09:12;156058.94;;;19.55;62.63
10127;BME280;13080;42.608;23.362;2023-08-31T07:11:39;156091.63;;;19.67;62.87
10127;BME280;13080;42.608;23.362;2023-08-31T07:14:05;156120.44;;;19.79;63.13
10127;BME280;13080;42.608;23.362;2023-08-31T07:16:32;156150.50;;;19.90;62.16
10127;BME280;13080;42.608;23.362;2023-08-31T07:18:59;156184.50;;;20.04;61.19
10127;BME280;13080;42.608;23.362;2023-08-31T07:21:26;156192.38;;;20.07;60.08
10127;BME280;13080;42.608;23.362;2023-08-31T07:23:53;156145.25;;;19.88;60.56
10127;BME280;13080;42.608;23.362;2023-08-31T07:26:22;156153.13;;;19.91;61.14
10127;BME280;13080;42.608;23.362;2023-08-31T07:28:48;156201.50;;;20.10;61.84
10127;BME280;13080;42.608;23.362;2023-08-31T07:31:15;156249.91;;;20.29;61.49
10127;BME280;13080;42.608;23.362;2023-08-31T07:33:42;156312.69;;;20.54;60.99
10127;BME280;13080;42.608;23.362;2023-08-31T07:36:09;156362.41;;;20.73;61.17
10127;BME280;13080;42.608;23.362;2023-08-31T07:38:36;156385.94;;;20.83;59.14
10127;BME280;13080;42.608;23.362;2023-08-31T07:41:03;156380.75;;;20.81;58.70
10127;BME280;13080;42.608;23.362;2023-08-31T07:43:32;156408.19;;;20.91;60.10
10127;BME280;13080;42.608;23.362;2023-08-31T07:45:58;156417.34;;;20.95;60.51
10127;BME280;13080;42.608;23.362;2023-08-31T07:48:25;156406.88;;;20.91;59.35
10127;BME280;13080;42.608;23.362;2023-08-31T07:50:52;156447.44;;;21.07;60.89
10127;BME280;13080;42.608;23.362;2023-08-31T07:53:19;156477.53;;;21.18;59.09
10127;BME280;13080;42.608;23.362;2023-08-31T07:55:52;156469.69;;;21.15;57.53
10127;BME280;13080;42.608;23.362;2023-08-31T07:58:20;156486.69;;;21.22;58.91
10127;BME280;13080;42.608;23.362;2023-08-31T08:00:49;156502.41;;;21.28;58.08
10127;BME280;13080;42.608;23.362;2023-08-31T08:03:15;156536.50;;;21.42;58.70
10127;BME280;13080;42.608;23.362;2023-08-31T08:05:42;156562.63;;;21.52;57.32
10127;BME280;13080;42.608;23.362;2023-08-31T08:08:09;156570.50;;;21.55;56.01
10127;BME280;13080;42.608;23.362;2023-08-31T08:10:36;156582.28;;;21.59;57.45
10127;BME280;13080;42.608;23.362;2023-08-31T08:13:03;156618.91;;;21.74;56.19
10127;BME280;13080;42.608;23.362;2023-08-31T08:15:30;156608.44;;;21.70;56.49
10127;BME280;13080;42.608;23.362;2023-08-31T08:17:58;156651.66;;;21.87;57.52
10127;BME280;13080;42.608;23.362;2023-08-31T08:20:26;156687.00;;;22.00;54.93
10127;BME280;13080;42.608;23.362;2023-08-31T08:22:53;156715.81;;;22.12;55.43
10127;BME280;13080;42.608;23.362;2023-08-31T08:25:21;156707.97;;;22.09;57.32
10127;BME280;13080;42.608;23.362;2023-08-31T08:27:50;156717.09;;;22.12;57.73
10127;BME280;13080;42.608;23.362;2023-08-31T08:30:17;156705.31;;;22.08;54.39
10127;BME280;13080;42.608;23.362;2023-08-31T08:32:44;156701.38;;;22.06;56.04
10127;BME280;13080;42.608;23.362;2023-08-31T08:35:12;156667.38;;;21.93;55.53
10127;BME280;13080;42.608;23.362;2023-08-31T08:37:39;156667.38;;;21.93;56.24
10127;BME280;13080;42.608;23.362;2023-08-31T08:40:07;156629.41;;;21.78;56.59
10127;BME280;13080;42.608;23.362;2023-08-31T08:42:40;156613.69;;;21.72;52.26
10127;BME280;13080;42.608;23.362;2023-08-31T08:45:09;156654.25;;;21.88;56.92
10127;BME280;13080;42.608;23.362;2023-08-31T08:47:40;156633.34;;;21.79;56.91
10127;BME280;13080;42.608;23.362;2023-08-31T08:50:09;156660.78;;;21.90;55.86
10127;BME280;13080;42.608;23.362;2023-08-31T08:52:38;156614.97;;;21.72;49.80
10127;BME280;13080;42.608;23.362;2023-08-31T08:55:06;156586.19;;;21.61;47.96
10127;BME280;13080;42.608;23.362;2023-08-31T08:57:34;156603.19;;;21.68;47.89
10127;BME280;13080;42.608;23.362;2023-08-31T09:00:01;156641.19;;;21.83;45.48
10127;BME280;13080;42.608;23.362;2023-08-31T09:02:28;156683.06;;;21.99;44.25
10127;BME280;13080;42.608;23.362;2023-08-31T09:04:55;156679.16;;;21.97;44.01
10127;BME280;13080;42.608;23.362;2023-08-31T09:07:22;156696.19;;;22.04;45.40
10127;BME280;13080;42.608;23.362;2023-08-31T09:09:51;156747.25;;;22.24;44.55
10127;BME280;13080;42.608;23.362;2023-08-31T09:12:18;156730.22;;;22.17;44.32
10127;BME280;13080;42.608;23.362;2023-08-31T09:14:57;156742.06;;;22.22;45.16
10127;BME280;13080;42.608;23.362;2023-08-31T09:17:24;156778.69;;;22.36;43.97
10127;BME280;13080;42.608;23.362;2023-08-31T09:22:25;156743.34;;;22.23;42.02
10127;BME280;13080;42.608;23.362;2023-08-31T09:24:53;156803.56;;;22.46;42.73
10127;BME280;13080;42.608;23.362;2023-08-31T09:27:20;156811.44;;;22.49;42.22
10127;BME280;13080;42.608;23.362;2023-08-31T09:29:48;156823.22;;;22.54;40.89
10127;BME280;13080;42.608;23.362;2023-08-31T09:32:16;156836.31;;;22.59;42.93
10127;BME280;13080;42.608;23.362;2023-08-31T09:34:43;156900.47;;;22.84;42.04
10127;BME280;13080;42.608;23.362;2023-08-31T09:37:10;156913.63;;;22.89;42.24
10127;BME280;13080;42.608;23.362;2023-08-31T09:39:37;156964.72;;;23.09;42.89
10127;BME280;13080;42.608;23.362;2023-08-31T09:42:05;156931.94;;;22.96;40.73
10127;BME280;13080;42.608;23.362;2023-08-31T09:44:32;156888.69;;;22.79;41.04
10127;BME280;13080;42.608;23.362;2023-08-31T09:46:59;156835.00;;;22.58;41.44
10127;BME280;13080;42.608;23.362;2023-08-31T09:49:26;156870.38;;;22.72;41.27
10127;BME280;13080;42.608;23.362;2023-08-31T09:51:54;156947.69;;;23.02;41.17
10127;BME280;13080;42.608;23.362;2023-08-31T09:54:21;156920.16;;;22.92;41.91
10127;BME280;13080;42.608;23.362;2023-08-31T09:56:49;156960.81;;;23.08;41.19
10127;BME280;13080;42.608;23.362;2023-08-31T09:59:17;156981.75;;;23.16;41.50
10127;BME280;13080;42.608;23.362;2023-08-31T10:01:45;156952.91;;;23.04;41.09
10127;BME280;13080;42.608;23.362;2023-08-31T10:04:13;156939.84;;;22.99;42.67
10127;BME280;13080;42.608;23.362;2023-08-31T10:06:40;156958.16;;;23.07;42.56
10127;BME280;13080;42.608;23.362;2023-08-31T10:09:08;156941.13;;;23.00;42.58
10127;BME280;13080;42.608;23.362;2023-08-31T10:11:37;156968.66;;;23.11;42.41
10127;BME280;13080;42.608;23.362;2023-08-31T10:14:05;157014.50;;;23.29;41.44
10127;BME280;13080;42.608;23.362;2023-08-31T10:16:34;157036.78;;;23.37;41.34
10127;BME280;13080;42.608;23.362;2023-08-31T10:19:02;157028.94;;;23.34;42.06
10127;BME280;13080;42.608;23.362;2023-08-31T10:21:29;157051.22;;;23.43;43.06
10127;BME280;13080;42.608;23.362;2023-08-31T10:23:56;157049.88;;;23.42;41.91
10127;BME280;13080;42.608;23.362;2023-08-31T10:26:24;157080.06;;;23.54;41.27
10127;BME280;13080;42.608;23.362;2023-08-31T10:28:51;157108.88;;;23.65;42.15
10127;BME280;13080;42.608;23.362;2023-08-31T10:31:19;157178.38;;;23.93;41.06
10127;BME280;13080;42.608;23.362;2023-08-31T10:33:56;157220.31;;;24.09;39.94
10127;BME280;13080;42.608;23.362;2023-08-31T10:36:35;157150.84;;;23.82;39.80
10127;BME280;13080;42.608;23.362;2023-08-31T10:39:06;157178.38;;;23.93;39.61
10127;BME280;13080;42.608;23.362;2023-08-31T10:41:35;157183.63;;;23.95;41.17
10127;BME280;13080;42.608;23.362;2023-08-31T10:44:02;157182.28;;;23.94;39.29
10127;BME280;13080;42.608;23.362;2023-08-31T10:46:43;157107.53;;;23.65;39.86
10127;BME280;13080;42.608;23.362;2023-08-31T10:49:15;157146.91;;;23.80;41.15
10127;BME280;13080;42.608;23.362;2023-08-31T10:51:44;157246.56;;;24.19;41.24
10127;BME280;13080;42.608;23.362;2023-08-31T10:54:12;157254.41;;;24.22;39.63
10127;BME280;13080;42.608;23.362;2023-08-31T10:57:01;157304.25;;;24.42;39.13
10127;BME280;13080;42.608;23.362;2023-08-31T10:59:42;157302.88;;;24.41;39.13
10127;BME280;13080;42.608;23.362;2023-08-31T11:02:10;157278.00;;;24.32;38.89
10127;BME280;13080;42.608;23.362;2023-08-31T11:07:32;157380.31;;;24.72;39.12
10127;BME280;13080;42.608;23.362;2023-08-31T11:10:12;157426.22;;;24.89;38.59
10127;BME280;13080;42.608;23.362;2023-08-31T11:12:40;157451.13;;;24.99;37.29
10127;BME280;13080;42.608;23.362;2023-08-31T11:15:08;157406.53;;;24.82;38.48
10127;BME280;13080;42.608;23.362;2023-08-31T11:17:36;157388.19;;;24.75;38.82
10127;BME280;13080;42.608;23.362;2023-08-31T11:20:06;157342.28;;;24.57;38.11
10127;BME280;13080;42.608;23.362;2023-08-31T11:22:38;157371.13;;;24.68;38.44
10127;BME280;13080;42.608;23.362;2023-08-31T11:25:06;157355.44;;;24.62;38.32
10127;BME280;13080;42.608;23.362;2023-08-31T11:27:33;157405.22;;;24.81;39.93
10127;BME280;13080;42.608;23.362;2023-08-31T11:30:00;157490.47;;;25.15;40.46
10127;BME280;13080;42.608;23.362;2023-08-31T11:32:26;157504.97;;;25.20;37.61
10127;BME280;13080;42.608;23.362;2023-08-31T11:34:53;157415.72;;;24.85;38.48
10127;BME280;13080;42.608;23.362;2023-08-31T11:37:20;157435.38;;;24.93;39.77
10127;BME280;13080;42.608;23.362;2023-08-31T11:39:50;157461.63;;;25.03;39.45
10127;BME280;13080;42.608;23.362;2023-08-31T11:42:20;157460.31;;;25.03;39.22
10127;BME280;13080;42.608;23.362;2023-08-31T11:44:48;157427.53;;;24.90;38.92
10127;BME280;13080;42.608;23.362;2023-08-31T11:47:16;157302.88;;;24.41;40.34
10127;BME280;13080;42.608;23.362;2023-08-31T11:49:43;157310.78;;;24.44;41.56
10127;BME280;13080;42.608;23.362;2023-08-31T11:52:10;157338.38;;;24.55;40.48
10127;BME280;13080;42.608;23.362;2023-08-31T11:54:38;157305.53;;;24.42;39.55
10127;BME280;13080;42.608;23.362;2023-08-31T11:57:08;157234.72;;;24.15;39.07
10127;BME280;13080;42.608;23.362;2023-08-31T11:59:36;157220.31;;;24.09;39.51
10127;BME280;13080;42.608;23.362;2023-08-31T12:02:05;157237.34;;;24.16;40.31
10127;BME280;13080;42.608;23.362;2023-08-31T12:04:32;157281.94;;;24.33;40.60
10127;BME280;13080;42.608;23.362;2023-08-31T12:07:02;157264.91;;;24.26;40.90
10127;BME280;13080;42.608;23.362;2023-08-31T12:09:32;157204.56;;;24.03;41.91
10127;BME280;13080;42.608;23.362;2023-08-31T12:11:59;157158.69;;;23.85;42.57
10127;BME280;13080;42.608;23.362;2023-08-31T12:14:28;157161.34;;;23.86;42.55
10127;BME280;13080;42.608;23.362;2023-08-31T12:17:01;157107.53;;;23.65;44.08
10127;BME280;13080;42.608;23.362;2023-08-31T12:19:28;157133.81;;;23.75;43.54
10127;BME280;13080;42.608;23.362;2023-08-31T12:21:56;157145.59;;;23.80;45.29
10127;BME280;13080;42.608;23.362;2023-08-31T12:24:23;157174.44;;;23.91;45.01
10127;BME280;13080;42.608;23.362;2023-08-31T12:26:51;157149.56;;;23.81;43.25
10127;BME280;13080;42.608;23.362;2023-08-31T12:29:19;157158.69;;;23.85;43.31
10127;BME280;13080;42.608;23.362;2023-08-31T12:31:47;157149.56;;;23.81;43.99
10127;BME280;13080;42.608;23.362;2023-08-31T12:34:14;157039.38;;;23.38;44.13
10127;BME280;13080;42.608;23.362;2023-08-31T12:36:41;157031.53;;;23.35;45.37
10127;BME280;13080;42.608;23.362;2023-08-31T12:39:08;157052.53;;;23.43;44.92
10127;BME280;13080;42.608;23.362;2023-08-31T12:41:36;157131.13;;;23.74;45.61
10127;BME280;13080;42.608;23.362;2023-08-31T12:44:03;157156.09;;;23.84;43.95
10127;BME280;13080;42.608;23.362;2023-08-31T12:46:30;157212.47;;;24.06;44.78
10127;BME280;13080;42.608;23.362;2023-08-31T12:48:59;157180.97;;;23.94;44.64